sensor_id;sensor_type;location;lat;lon;timestamp;temperature;humidity
27797;DHT22;15177;50.844;4.412;2023-02-26T00:00:07;3.70;99.90
27797;DHT22;15177;50.844;4.412;2023-02-26T00:02:41;3.60;99.90
27797;DHT22;15177;50.844;4.412;2023-02-26T00:05:12;3.40;99.90
27797;DHT22;15177;50.844;4.412;2023-02-26T00:07:38;3.50;99.90
27797;DHT22;15177;50.844;4.412;2023-02-26T00:10:05;3.50;99.90
27797;DHT22;15177;50.844;4.412;2023-02-26T00:12:32;3.50;99.90
27797;DHT22;15177;50.844;4.412;2023-02-26T00:15:00;3.70;99.90
27797;DHT22;15177;50.844;4.412;2023-02-26T00:20:15;3.40;99.90
27797;DHT22;15177;50.844;4.412;2023-02-26T00:22:41;3.40;99.90
27797;DHT22;15177;50.844;4.412;2023-02-26T00:25:08;3.30;99.90
27797;DHT22;15177;50.844;4.412;2023-02-26T00:27:35;3.20;99.90
27797;DHT22;15177;50.844;4.412;2023-02-26T00:30:02;3.20;99.90
27797;DHT22;15177;50.844;4.412;2023-02-26T00:32:29;3.40;99.90
27797;DHT22;15177;50.844;4.412;2023-02-26T00:34:56;3.40;99.90
27797;DHT22;15177;50.844;4.412;2023-02-26T00:42:34;3.20;99.90
27797;DHT22;15177;50.844;4.412;2023-02-26T00:45:02;3.20;99.90
27797;DHT22;15177;50.844;4.412;2023-02-26T00:55:25;3.30;99.90
27797;DHT22;15177;50.844;4.412;2023-02-26T00:57:52;3.40;99.90
27797;DHT22;15177;50.844;4.412;2023-02-26T01:00:18;3.50;99.90
27797;DHT22;15177;50.844;4.412;2023-02-26T01:02:45;3.40;99.90
27797;DHT22;15177;50.844;4.412;2023-02-26T01:05:11;3.30;99.90
27797;DHT22;15177;50.844;4.412;2023-02-26T01:08:02;3.20;99.90
27797;DHT22;15177;50.844;4.412;2023-02-26T01:10:26;3.10;99.90
27797;DHT22;15177;50.844;4.412;2023-02-26T01:12:52;3.20;99.90
27797;DHT22;15177;50.844;4.412;2023-02-26T01:15:20;3.20;99.90
27797;DHT22;15177;50.844;4.412;2023-02-26T01:20:23;3.10;99.90
27797;DHT22;15177;50.844;4.412;2023-02-26T01:28:11;3.10;99.90
27797;DHT22;15177;50.844;4.412;2023-02-26T01:30:38;3.10;99.90
27797;DHT22;15177;50.844;4.412;2023-02-26T01:35:46;3.00;99.90
27797;DHT22;15177;50.844;4.412;2023-02-26T01:38:42;2.90;99.90
27797;DHT22;15177;50.844;4.412;2023-02-26T01:49:50;3.00;99.90
27797;DHT22;15177;50.844;4.412;2023-02-26T01:55:16;2.90;99.90
27797;DHT22;15177;50.844;4.412;2023-02-26T01:57:43;3.00;99.90
27797;DHT22;15177;50.844;4.412;2023-02-26T02:00:11;3.00;99.90
27797;DHT22;15177;50.844;4.412;2023-02-26T02:02:38;2.80;99.90
27797;DHT22;15177;50.844;4.412;2023-02-26T02:08:11;2.90;99.90
27797;DHT22;15177;50.844;4.412;2023-02-26T02:10:41;2.90;99.90
27797;DHT22;15177;50.844;4.412;2023-02-26T02:24:06;2.90;99.90
27797;DHT22;15177;50.844;4.412;2023-02-26T02:26:41;2.90;99.90
27797;DHT22;15177;50.844;4.412;2023-02-26T02:31:53;2.90;99.90
27797;DHT22;15177;50.844;4.412;2023-02-26T02:34:32;2.90;99.90
27797;DHT22;15177;50.844;4.412;2023-02-26T02:37:19;3.00;99.90
27797;DHT22;15177;50.844;4.412;2023-02-26T02:39:54;3.00;99.90
27797;DHT22;15177;50.844;4.412;2023-02-26T02:45:02;2.90;99.90
27797;DHT22;15177;50.844;4.412;2023-02-26T02:47:31;2.80;99.90
27797;DHT22;15177;50.844;4.412;2023-02-26T02:50:11;2.90;99.90
27797;DHT22;15177;50.844;4.412;2023-02-26T02:52:51;2.70;99.90
27797;DHT22;15177;50.844;4.412;2023-02-26T02:55:23;2.70;99.90
27797;DHT22;15177;50.844;4.412;2023-02-26T02:58:13;2.90;99.90
27797;DHT22;15177;50.844;4.412;2023-02-26T03:00:47;2.90;99.90
27797;DHT22;15177;50.844;4.412;2023-02-26T03:03:25;3.00;99.90
27797;DHT22;15177;50.844;4.412;2023-02-26T03:05:52;3.00;99.90
27797;DHT22;15177;50.844;4.412;2023-02-26T03:08:26;3.10;99.90
27797;DHT22;15177;50.844;4.412;2023-02-26T03:10:53;3.10;99.90
27797;DHT22;15177;50.844;4.412;2023-02-26T03:13:23;3.00;99.90
27797;DHT22;15177;50.844;4.412;2023-02-26T03:18:59;2.90;99.90
27797;DHT22;15177;50.844;4.412;2023-02-26T03:26:59;2.70;99.90
27797;DHT22;15177;50.844;4.412;2023-02-26T03:29:40;2.60;99.90
27797;DHT22;15177;50.844;4.412;2023-02-26T03:32:12;2.60;99.90
27797;DHT22;15177;50.844;4.412;2023-02-26T03:34:52;2.50;99.90
27797;DHT22;15177;50.844;4.412;2023-02-26T03:37:36;2.60;99.90
27797;DHT22;15177;50.844;4.412;2023-02-26T03:40:08;2.50;99.90
27797;DHT22;15177;50.844;4.412;2023-02-26T03:42:50;2.60;99.90
27797;DHT22;15177;50.844;4.412;2023-02-26T03:45:28;2.50;99.90
27797;DHT22;15177;50.844;4.412;2023-02-26T03:47:57;2.50;99.90
27797;DHT22;15177;50.844;4.412;2023-02-26T03:50:47;2.50;99.90
27797;DHT22;15177;50.844;4.412;2023-02-26T03:56:32;2.50;99.90
27797;DHT22;15177;50.844;4.412;2023-02-26T03:58:59;2.40;99.90
27797;DHT22;15177;50.844;4.412;2023-02-26T04:01:40;2.40;99.90
27797;DHT22;15177;50.844;4.412;2023-02-26T04:04:33;2.40;99.90
27797;DHT22;15177;50.844;4.412;2023-02-26T04:07:00;2.40;99.90
27797;DHT22;15177;50.844;4.412;2023-02-26T04:09:27;2.40;99.90
27797;DHT22;15177;50.844;4.412;2023-02-26T04:11:56;2.40;99.90
27797;DHT22;15177;50.844;4.412;2023-02-26T04:14:23;2.30;99.90
27797;DHT22;15177;50.844;4.412;2023-02-26T04:16:50;2.30;99.90
27797;DHT22;15177;50.844;4.412;2023-02-26T04:19:16;2.30;99.90
27797;DHT22;15177;50.844;4.412;2023-02-26T04:21:43;2.10;99.90
27797;DHT22;15177;50.844;4.412;2023-02-26T04:24:10;2.20;99.90
27797;DHT22;15177;50.844;4.412;2023-02-26T04:26:37;2.20;99.90
27797;DHT22;15177;50.844;4.412;2023-02-26T04:29:03;2.20;99.90
27797;DHT22;15177;50.844;4.412;2023-02-26T04:31:28;2.20;99.90
27797;DHT22;15177;50.844;4.412;2023-02-26T04:33:54;2.10;99.90
27797;DHT22;15177;50.844;4.412;2023-02-26T04:36:21;2.10;99.90
27797;DHT22;15177;50.844;4.412;2023-02-26T04:38:47;2.00;99.90
27797;DHT22;15177;50.844;4.412;2023-02-26T04:41:12;2.10;99.90
27797;DHT22;15177;50.844;4.412;2023-02-26T04:43:38;2.10;99.90
27797;DHT22;15177;50.844;4.412;2023-02-26T04:46:04;2.10;99.90
27797;DHT22;15177;50.844;4.412;2023-02-26T04:48:31;2.10;99.90
27797;DHT22;15177;50.844;4.412;2023-02-26T04:50:56;2.10;99.90
27797;DHT22;15177;50.844;4.412;2023-02-26T04:53:22;2.10;99.90
27797;DHT22;15177;50.844;4.412;2023-02-26T04:55:48;2.10;99.90
27797;DHT22;15177;50.844;4.412;2023-02-26T04:58:14;2.10;99.90
27797;DHT22;15177;50.844;4.412;2023-02-26T05:00:40;2.00;99.90
27797;DHT22;15177;50.844;4.412;2023-02-26T05:03:06;2.00;99.90
27797;DHT22;15177;50.844;4.412;2023-02-26T05:05:35;2.00;99.90
27797;DHT22;15177;50.844;4.412;2023-02-26T05:08:00;1.90;99.90
27797;DHT22;15177;50.844;4.412;2023-02-26T05:10:27;1.90;99.90
27797;DHT22;15177;50.844;4.412;2023-02-26T05:12:52;1.90;99.90
27797;DHT22;15177;50.844;4.412;2023-02-26T05:15:18;1.80;99.90
27797;DHT22;15177;50.844;4.412;2023-02-26T05:17:44;1.80;99.90
27797;DHT22;15177;50.844;4.412;2023-02-26T05:20:10;1.80;99.90
27797;DHT22;15177;50.844;4.412;2023-02-26T05:22:38;1.80;99.90
27797;DHT22;15177;50.844;4.412;2023-02-26T05:25:05;1.80;99.90
27797;DHT22;15177;50.844;4.412;2023-02-26T05:27:31;1.90;99.90
27797;DHT22;15177;50.844;4.412;2023-02-26T05:29:58;1.90;99.90
27797;DHT22;15177;50.844;4.412;2023-02-26T05:32:27;1.80;99.90
27797;DHT22;15177;50.844;4.412;2023-02-26T05:34:52;1.70;99.90
27797;DHT22;15177;50.844;4.412;2023-02-26T05:37:18;1.70;99.90
27797;DHT22;15177;50.844;4.412;2023-02-26T05:39:44;1.70;99.90
27797;DHT22;15177;50.844;4.412;2023-02-26T05:42:09;1.70;99.90
27797;DHT22;15177;50.844;4.412;2023-02-26T05:44:35;1.60;99.90
27797;DHT22;15177;50.844;4.412;2023-02-26T05:47:01;1.50;99.90
27797;DHT22;15177;50.844;4.412;2023-02-26T05:49:28;1.50;99.90
27797;DHT22;15177;50.844;4.412;2023-02-26T05:51:54;1.60;99.90
27797;DHT22;15177;50.844;4.412;2023-02-26T05:54:23;1.60;99.90
27797;DHT22;15177;50.844;4.412;2023-02-26T05:56:49;1.60;99.90
27797;DHT22;15177;50.844;4.412;2023-02-26T05:59:15;1.60;99.90
27797;DHT22;15177;50.844;4.412;2023-02-26T06:01:40;1.60;99.90
27797;DHT22;15177;50.844;4.412;2023-02-26T06:04:08;1.40;99.90
27797;DHT22;15177;50.844;4.412;2023-02-26T06:06:34;1.40;99.90
27797;DHT22;15177;50.844;4.412;2023-02-26T06:09:00;1.40;99.90
27797;DHT22;15177;50.844;4.412;2023-02-26T06:11:28;1.40;99.90
27797;DHT22;15177;50.844;4.412;2023-02-26T06:13:54;1.40;99.90
27797;DHT22;15177;50.844;4.412;2023-02-26T06:16:20;1.40;99.90
27797;DHT22;15177;50.844;4.412;2023-02-26T06:18:47;1.40;99.90
27797;DHT22;15177;50.844;4.412;2023-02-26T06:21:15;1.30;99.90
27797;DHT22;15177;50.844;4.412;2023-02-26T06:23:41;1.30;99.90
27797;DHT22;15177;50.844;4.412;2023-02-26T06:26:07;1.30;99.90
27797;DHT22;15177;50.844;4.412;2023-02-26T06:28:32;1.20;99.90
27797;DHT22;15177;50.844;4.412;2023-02-26T06:30:58;1.30;99.90
27797;DHT22;15177;50.844;4.412;2023-02-26T06:33:24;1.10;99.90
27797;DHT22;15177;50.844;4.412;2023-02-26T06:35:53;1.20;99.90
27797;DHT22;15177;50.844;4.412;2023-02-26T06:38:18;1.10;99.90
27797;DHT22;15177;50.844;4.412;2023-02-26T06:40:47;1.20;99.90
27797;DHT22;15177;50.844;4.412;2023-02-26T06:43:12;1.20;99.90
27797;DHT22;15177;50.844;4.412;2023-02-26T06:45:39;1.10;99.90
27797;DHT22;15177;50.844;4.412;2023-02-26T06:48:05;1.30;99.90
27797;DHT22;15177;50.844;4.412;2023-02-26T06:50:31;1.20;99.90
27797;DHT22;15177;50.844;4.412;2023-02-26T06:52:58;1.20;99.90
27797;DHT22;15177;50.844;4.412;2023-02-26T06:55:23;1.20;99.90
27797;DHT22;15177;50.844;4.412;2023-02-26T06:57:56;1.20;99.90
27797;DHT22;15177;50.844;4.412;2023-02-26T07:00:23;1.30;99.90
27797;DHT22;15177;50.844;4.412;2023-02-26T07:02:50;1.40;99.90
27797;DHT22;15177;50.844;4.412;2023-02-26T07:05:16;1.40;99.90
27797;DHT22;15177;50.844;4.412;2023-02-26T07:07:41;1.30;99.90
27797;DHT22;15177;50.844;4.412;2023-02-26T07:10:09;1.40;99.90
27797;DHT22;15177;50.844;4.412;2023-02-26T07:12:35;1.40;99.90
27797;DHT22;15177;50.844;4.412;2023-02-26T07:15:03;1.40;99.90
27797;DHT22;15177;50.844;4.412;2023-02-26T07:17:29;1.40;99.90
27797;DHT22;15177;50.844;4.412;2023-02-26T07:19:55;1.50;99.90
27797;DHT22;15177;50.844;4.412;2023-02-26T07:22:21;1.50;99.90
27797;DHT22;15177;50.844;4.412;2023-02-26T07:24:46;1.50;99.90
27797;DHT22;15177;50.844;4.412;2023-02-26T07:27:12;1.50;99.90
27797;DHT22;15177;50.844;4.412;2023-02-26T07:29:38;1.60;99.90
27797;DHT22;15177;50.844;4.412;2023-02-26T07:32:04;1.60;99.90
27797;DHT22;15177;50.844;4.412;2023-02-26T07:34:33;1.80;99.90
27797;DHT22;15177;50.844;4.412;2023-02-26T07:37:00;2.40;99.90
27797;DHT22;15177;50.844;4.412;2023-02-26T07:39:26;3.40;99.90
27797;DHT22;15177;50.844;4.412;2023-02-26T07:41:52;4.50;99.90
27797;DHT22;15177;50.844;4.412;2023-02-26T07:44:19;5.30;99.90
27797;DHT22;15177;50.844;4.412;2023-02-26T07:46:44;6.00;99.90
27797;DHT22;15177;50.844;4.412;2023-02-26T07:49:10;6.60;99.90
27797;DHT22;15177;50.844;4.412;2023-02-26T07:51:36;7.50;99.90
27797;DHT22;15177;50.844;4.412;2023-02-26T07:54:03;8.20;99.90
27797;DHT22;15177;50.844;4.412;2023-02-26T07:56:29;8.70;98.50
27797;DHT22;15177;50.844;4.412;2023-02-26T07:58:55;8.70;96.90
27797;DHT22;15177;50.844;4.412;2023-02-26T08:01:20;8.90;96.10
27797;DHT22;15177;50.844;4.412;2023-02-26T08:03:47;9.10;95.40
27797;DHT22;15177;50.844;4.412;2023-02-26T08:06:12;9.10;93.90
27797;DHT22;15177;50.844;4.412;2023-02-26T08:08:38;9.70;92.60
27797;DHT22;15177;50.844;4.412;2023-02-26T08:11:04;9.60;92.40
27797;DHT22;15177;50.844;4.412;2023-02-26T08:13:30;10.40;90.70
27797;DHT22;15177;50.844;4.412;2023-02-26T08:16:02;10.50;87.20
27797;DHT22;15177;50.844;4.412;2023-02-26T08:18:28;10.50;85.40
27797;DHT22;15177;50.844;4.412;2023-02-26T08:20:53;9.70;88.80
27797;DHT22;15177;50.844;4.412;2023-02-26T08:23:19;10.10;87.70
27797;DHT22;15177;50.844;4.412;2023-02-26T08:25:45;10.70;85.30
27797;DHT22;15177;50.844;4.412;2023-02-26T08:28:11;10.70;83.20
27797;DHT22;15177;50.844;4.412;2023-02-26T08:30:37;10.40;85.20
27797;DHT22;15177;50.844;4.412;2023-02-26T08:33:04;10.80;82.70
27797;DHT22;15177;50.844;4.412;2023-02-26T08:35:30;10.70;83.40
27797;DHT22;15177;50.844;4.412;2023-02-26T08:37:57;11.30;80.10
27797;DHT22;15177;50.844;4.412;2023-02-26T08:40:24;10.60;81.80
27797;DHT22;15177;50.844;4.412;2023-02-26T08:42:50;10.90;83.70
27797;DHT22;15177;50.844;4.412;2023-02-26T08:45:17;10.80;80.10
27797;DHT22;15177;50.844;4.412;2023-02-26T08:47:43;11.10;80.40
27797;DHT22;15177;50.844;4.412;2023-02-26T08:50:11;11.10;79.90
27797;DHT22;15177;50.844;4.412;2023-02-26T08:52:37;10.80;79.30
27797;DHT22;15177;50.844;4.412;2023-02-26T08:55:03;11.00;81.80
27797;DHT22;15177;50.844;4.412;2023-02-26T08:57:29;11.60;77.60
27797;DHT22;15177;50.844;4.412;2023-02-26T08:59:54;11.60;77.40
27797;DHT22;15177;50.844;4.412;2023-02-26T09:02:20;11.50;77.50
27797;DHT22;15177;50.844;4.412;2023-02-26T09:04:46;10.70;80.30
27797;DHT22;15177;50.844;4.412;2023-02-26T09:07:12;10.90;79.80
27797;DHT22;15177;50.844;4.412;2023-02-26T09:09:39;10.70;80.00
27797;DHT22;15177;50.844;4.412;2023-02-26T09:12:04;11.30;78.00
27797;DHT22;15177;50.844;4.412;2023-02-26T09:14:30;11.30;79.50
27797;DHT22;15177;50.844;4.412;2023-02-26T09:16:56;12.00;76.00
27797;DHT22;15177;50.844;4.412;2023-02-26T09:19:22;12.10;73.10
27797;DHT22;15177;50.844;4.412;2023-02-26T09:21:47;12.20;72.40
27797;DHT22;15177;50.844;4.412;2023-02-26T09:24:14;12.20;72.20
27797;DHT22;15177;50.844;4.412;2023-02-26T09:26:40;12.10;71.40
27797;DHT22;15177;50.844;4.412;2023-02-26T09:29:05;11.20;75.00
27797;DHT22;15177;50.844;4.412;2023-02-26T09:31:31;11.40;74.80
27797;DHT22;15177;50.844;4.412;2023-02-26T09:33:58;11.00;76.20
27797;DHT22;15177;50.844;4.412;2023-02-26T09:36:25;11.70;73.70
27797;DHT22;15177;50.844;4.412;2023-02-26T09:38:50;11.30;75.30
27797;DHT22;15177;50.844;4.412;2023-02-26T09:41:30;11.50;76.00
27797;DHT22;15177;50.844;4.412;2023-02-26T09:51:53;11.90;73.00
27797;DHT22;15177;50.844;4.412;2023-02-26T09:54:23;12.00;72.80
27797;DHT22;15177;50.844;4.412;2023-02-26T09:56:52;11.50;72.00
27797;DHT22;15177;50.844;4.412;2023-02-26T09:59:18;11.50;73.50
27797;DHT22;15177;50.844;4.412;2023-02-26T10:07:22;9.80;77.40
27797;DHT22;15177;50.844;4.412;2023-02-26T10:10:28;9.40;77.80
27797;DHT22;15177;50.844;4.412;2023-02-26T10:12:57;9.70;80.50
27797;DHT22;15177;50.844;4.412;2023-02-26T10:15:41;8.90;79.80
27797;DHT22;15177;50.844;4.412;2023-02-26T10:18:17;9.30;80.30
27797;DHT22;15177;50.844;4.412;2023-02-26T10:26:25;9.80;75.50
27797;DHT22;15177;50.844;4.412;2023-02-26T10:43:21;9.00;77.30
27797;DHT22;15177;50.844;4.412;2023-02-26T10:51:17;7.80;83.80
27797;DHT22;15177;50.844;4.412;2023-02-26T10:53:53;7.50;85.60
27797;DHT22;15177;50.844;4.412;2023-02-26T10:56:30;7.20;86.90
27797;DHT22;15177;50.844;4.412;2023-02-26T10:58:56;7.10;85.90
27797;DHT22;15177;50.844;4.412;2023-02-26T11:01:24;7.20;86.40
27797;DHT22;15177;50.844;4.412;2023-02-26T11:03:57;7.20;86.10
27797;DHT22;15177;50.844;4.412;2023-02-26T11:06:34;6.80;87.20
27797;DHT22;15177;50.844;4.412;2023-02-26T11:09:26;6.60;90.30
27797;DHT22;15177;50.844;4.412;2023-02-26T11:14:37;6.40;89.80
27797;DHT22;15177;50.844;4.412;2023-02-26T11:17:10;6.00;90.50
27797;DHT22;15177;50.844;4.412;2023-02-26T11:19:57;5.70;90.90
27797;DHT22;15177;50.844;4.412;2023-02-26T11:22:26;5.60;90.40
27797;DHT22;15177;50.844;4.412;2023-02-26T11:24:53;5.70;90.40
27797;DHT22;15177;50.844;4.412;2023-02-26T11:27:26;5.40;90.70
27797;DHT22;15177;50.844;4.412;2023-02-26T11:30:09;5.20;91.60
27797;DHT22;15177;50.844;4.412;2023-02-26T11:32:39;5.20;91.60
27797;DHT22;15177;50.844;4.412;2023-02-26T11:35:13;5.30;92.20
27797;DHT22;15177;50.844;4.412;2023-02-26T11:37:40;5.30;91.70
27797;DHT22;15177;50.844;4.412;2023-02-26T11:40:22;5.50;91.40
27797;DHT22;15177;50.844;4.412;2023-02-26T11:42:55;5.30;91.50
27797;DHT22;15177;50.844;4.412;2023-02-26T11:45:22;5.30;91.50
27797;DHT22;15177;50.844;4.412;2023-02-26T11:47:57;5.30;92.00
27797;DHT22;15177;50.844;4.412;2023-02-26T11:50:24;5.50;92.40
27797;DHT22;15177;50.844;4.412;2023-02-26T11:53:04;5.60;91.40
27797;DHT22;15177;50.844;4.412;2023-02-26T11:55:37;5.50;91.80
27797;DHT22;15177;50.844;4.412;2023-02-26T11:58:21;5.50;92.30
27797;DHT22;15177;50.844;4.412;2023-02-26T12:00:47;5.40;92.50
27797;DHT22;15177;50.844;4.412;2023-02-26T12:03:20;5.30;92.80
27797;DHT22;15177;50.844;4.412;2023-02-26T12:05:47;5.10;93.00
27797;DHT22;15177;50.844;4.412;2023-02-26T12:08:40;5.20;92.80
27797;DHT22;15177;50.844;4.412;2023-02-26T12:33:00;5.80;90.80
27797;DHT22;15177;50.844;4.412;2023-02-26T12:35:58;5.70;91.60
27797;DHT22;15177;50.844;4.412;2023-02-26T12:42:23;5.90;93.00
27797;DHT22;15177;50.844;4.412;2023-02-26T12:50:02;5.80;93.20
27797;DHT22;15177;50.844;4.412;2023-02-26T12:52:55;5.90;93.50
27797;DHT22;15177;50.844;4.412;2023-02-26T13:10:27;5.70;90.80
27797;DHT22;15177;50.844;4.412;2023-02-26T13:18:47;5.70;92.20
27797;DHT22;15177;50.844;4.412;2023-02-26T13:21:35;5.60;92.70
27797;DHT22;15177;50.844;4.412;2023-02-26T13:24:06;5.50;91.70
27797;DHT22;15177;50.844;4.412;2023-02-26T13:26:35;5.40;91.70
27797;DHT22;15177;50.844;4.412;2023-02-26T13:29:11;5.50;91.80
27797;DHT22;15177;50.844;4.412;2023-02-26T13:34:39;5.40;90.50
27797;DHT22;15177;50.844;4.412;2023-02-26T13:37:17;5.30;90.60
27797;DHT22;15177;50.844;4.412;2023-02-26T13:45:17;5.20;91.00
27797;DHT22;15177;50.844;4.412;2023-02-26T13:47:55;5.20;90.70
27797;DHT22;15177;50.844;4.412;2023-02-26T13:50:42;5.30;88.90
27797;DHT22;15177;50.844;4.412;2023-02-26T13:58:59;5.40;86.90
27797;DHT22;15177;50.844;4.412;2023-02-26T14:01:33;5.40;86.60
27797;DHT22;15177;50.844;4.412;2023-02-26T14:06:55;5.50;86.20
27797;DHT22;15177;50.844;4.412;2023-02-26T14:14:43;5.50;83.70
27797;DHT22;15177;50.844;4.412;2023-02-26T14:24:56;5.40;85.40
27797;DHT22;15177;50.844;4.412;2023-02-26T14:27:45;5.30;87.00
27797;DHT22;15177;50.844;4.412;2023-02-26T14:30:18;5.30;84.60
27797;DHT22;15177;50.844;4.412;2023-02-26T14:33:06;5.40;83.90
27797;DHT22;15177;50.844;4.412;2023-02-26T14:35:42;5.50;84.40
27797;DHT22;15177;50.844;4.412;2023-02-26T14:41:46;5.50;85.50
27797;DHT22;15177;50.844;4.412;2023-02-26T14:44:16;5.50;83.20
27797;DHT22;15177;50.844;4.412;2023-02-26T14:46:43;5.50;83.40
27797;DHT22;15177;50.844;4.412;2023-02-26T14:49:20;5.50;83.60
27797;DHT22;15177;50.844;4.412;2023-02-26T14:57:22;5.70;85.00
27797;DHT22;15177;50.844;4.412;2023-02-26T15:00:15;5.70;83.70
27797;DHT22;15177;50.844;4.412;2023-02-26T15:06:00;5.50;82.50
27797;DHT22;15177;50.844;4.412;2023-02-26T15:11:55;5.50;82.50
27797;DHT22;15177;50.844;4.412;2023-02-26T15:25:41;5.50;86.60
27797;DHT22;15177;50.844;4.412;2023-02-26T15:28:46;5.50;86.60
27797;DHT22;15177;50.844;4.412;2023-02-26T15:31:08;5.40;88.20
27797;DHT22;15177;50.844;4.412;2023-02-26T15:33:34;5.40;89.20
27797;DHT22;15177;50.844;4.412;2023-02-26T15:36:05;5.50;88.20
27797;DHT22;15177;50.844;4.412;2023-02-26T15:38:55;5.50;88.10
27797;DHT22;15177;50.844;4.412;2023-02-26T15:41:22;5.50;89.40
27797;DHT22;15177;50.844;4.412;2023-02-26T15:43:54;5.40;89.30
27797;DHT22;15177;50.844;4.412;2023-02-26T15:46:25;5.30;90.20
27797;DHT22;15177;50.844;4.412;2023-02-26T15:48:53;5.40;90.30
27797;DHT22;15177;50.844;4.412;2023-02-26T15:51:19;5.50;90.30
27797;DHT22;15177;50.844;4.412;2023-02-26T15:53:48;5.50;90.00
27797;DHT22;15177;50.844;4.412;2023-02-26T15:56:28;5.50;90.00
27797;DHT22;15177;50.844;4.412;2023-02-26T15:59:02;5.40;90.60
27797;DHT22;15177;50.844;4.412;2023-02-26T16:01:31;5.20;90.80
27797;DHT22;15177;50.844;4.412;2023-02-26T16:04:02;5.30;91.10
27797;DHT22;15177;50.844;4.412;2023-02-26T16:06:36;5.40;91.40
27797;DHT22;15177;50.844;4.412;2023-02-26T16:09:07;5.50;91.40
27797;DHT22;15177;50.844;4.412;2023-02-26T16:11:37;5.60;91.70
27797;DHT22;15177;50.844;4.412;2023-02-26T16:14:06;5.70;91.70
27797;DHT22;15177;50.844;4.412;2023-02-26T16:16:48;5.80;91.20
27797;DHT22;15177;50.844;4.412;2023-02-26T16:19:37;5.70;90.70
27797;DHT22;15177;50.844;4.412;2023-02-26T16:22:05;5.60;91.50
27797;DHT22;15177;50.844;4.412;2023-02-26T16:24:35;5.70;91.60
27797;DHT22;15177;50.844;4.412;2023-02-26T16:27:05;5.70;91.60
27797;DHT22;15177;50.844;4.412;2023-02-26T16:29:35;5.70;91.70
27797;DHT22;15177;50.844;4.412;2023-02-26T16:32:03;5.60;92.30
27797;DHT22;15177;50.844;4.412;2023-02-26T16:37:22;5.70;92.50
27797;DHT22;15177;50.844;4.412;2023-02-26T16:39:56;5.50;92.50
27797;DHT22;15177;50.844;4.412;2023-02-26T16:48:43;5.30;94.10
27797;DHT22;15177;50.844;4.412;2023-02-26T16:51:13;5.40;94.20
27797;DHT22;15177;50.844;4.412;2023-02-26T16:54:07;5.50;94.20
27797;DHT22;15177;50.844;4.412;2023-02-26T16:56:39;5.60;94.00
27797;DHT22;15177;50.844;4.412;2023-02-26T16:59:36;5.50;94.50
27797;DHT22;15177;50.844;4.412;2023-02-26T17:02:18;5.50;94.60
27797;DHT22;15177;50.844;4.412;2023-02-26T17:04:48;5.60;93.80
27797;DHT22;15177;50.844;4.412;2023-02-26T17:07:45;5.60;94.10
27797;DHT22;15177;50.844;4.412;2023-02-26T17:10:39;5.60;94.80
27797;DHT22;15177;50.844;4.412;2023-02-26T17:13:27;5.50;94.50
27797;DHT22;15177;50.844;4.412;2023-02-26T17:16:00;5.50;94.70
27797;DHT22;15177;50.844;4.412;2023-02-26T17:18:26;5.30;95.40
27797;DHT22;15177;50.844;4.412;2023-02-26T17:20:52;5.20;95.80
27797;DHT22;15177;50.844;4.412;2023-02-26T17:23:20;5.30;95.90
27797;DHT22;15177;50.844;4.412;2023-02-26T17:25:51;5.30;96.10
27797;DHT22;15177;50.844;4.412;2023-02-26T17:28:23;5.20;96.60
27797;DHT22;15177;50.844;4.412;2023-02-26T17:30:50;5.10;97.10
27797;DHT22;15177;50.844;4.412;2023-02-26T17:33:15;5.20;97.10
27797;DHT22;15177;50.844;4.412;2023-02-26T17:35:42;5.10;97.40
27797;DHT22;15177;50.844;4.412;2023-02-26T17:38:10;5.00;98.10
27797;DHT22;15177;50.844;4.412;2023-02-26T17:40:41;4.80;98.30
27797;DHT22;15177;50.844;4.412;2023-02-26T17:43:08;5.00;98.70
27797;DHT22;15177;50.844;4.412;2023-02-26T17:45:36;4.90;98.80
27797;DHT22;15177;50.844;4.412;2023-02-26T17:48:04;4.90;99.10
27797;DHT22;15177;50.844;4.412;2023-02-26T17:50:49;4.90;99.30
27797;DHT22;15177;50.844;4.412;2023-02-26T17:53:16;4.80;99.60
27797;DHT22;15177;50.844;4.412;2023-02-26T17:55:44;4.70;99.90
27797;DHT22;15177;50.844;4.412;2023-02-26T17:58:29;4.70;99.90
27797;DHT22;15177;50.844;4.412;2023-02-26T18:00:57;4.80;99.90
27797;DHT22;15177;50.844;4.412;2023-02-26T18:03:24;4.80;99.90
27797;DHT22;15177;50.844;4.412;2023-02-26T18:05:53;4.90;99.90
27797;DHT22;15177;50.844;4.412;2023-02-26T18:10:48;4.90;99.90
27797;DHT22;15177;50.844;4.412;2023-02-26T18:13:14;4.90;99.90
27797;DHT22;15177;50.844;4.412;2023-02-26T18:15:40;4.80;99.90
27797;DHT22;15177;50.844;4.412;2023-02-26T18:18:09;4.90;99.90
27797;DHT22;15177;50.844;4.412;2023-02-26T18:20:36;4.80;99.90
27797;DHT22;15177;50.844;4.412;2023-02-26T18:23:03;4.80;99.90
27797;DHT22;15177;50.844;4.412;2023-02-26T18:25:32;4.90;99.90
27797;DHT22;15177;50.844;4.412;2023-02-26T18:28:00;4.80;99.90
27797;DHT22;15177;50.844;4.412;2023-02-26T18:30:32;4.70;99.90
27797;DHT22;15177;50.844;4.412;2023-02-26T18:32:58;4.70;99.90
27797;DHT22;15177;50.844;4.412;2023-02-26T18:35:27;4.70;99.90
27797;DHT22;15177;50.844;4.412;2023-02-26T18:37:55;4.70;99.90
27797;DHT22;15177;50.844;4.412;2023-02-26T18:40:24;4.70;99.90
27797;DHT22;15177;50.844;4.412;2023-02-26T18:42:52;4.90;99.90
27797;DHT22;15177;50.844;4.412;2023-02-26T18:45:20;4.80;99.90
27797;DHT22;15177;50.844;4.412;2023-02-26T18:47:46;4.80;99.90
27797;DHT22;15177;50.844;4.412;2023-02-26T18:50:14;4.70;99.90
27797;DHT22;15177;50.844;4.412;2023-02-26T18:52:40;4.60;99.90
27797;DHT22;15177;50.844;4.412;2023-02-26T18:55:09;4.60;99.90
27797;DHT22;15177;50.844;4.412;2023-02-26T18:57:39;4.70;99.90
27797;DHT22;15177;50.844;4.412;2023-02-26T19:00:08;4.70;99.90
27797;DHT22;15177;50.844;4.412;2023-02-26T19:02:34;4.70;99.90
27797;DHT22;15177;50.844;4.412;2023-02-26T19:05:00;4.70;99.90
27797;DHT22;15177;50.844;4.412;2023-02-26T19:07:26;4.60;99.90
27797;DHT22;15177;50.844;4.412;2023-02-26T19:09:52;4.60;99.90
27797;DHT22;15177;50.844;4.412;2023-02-26T19:12:18;4.60;99.90
27797;DHT22;15177;50.844;4.412;2023-02-26T19:14:48;4.60;99.90
27797;DHT22;15177;50.844;4.412;2023-02-26T19:17:14;4.40;99.90
27797;DHT22;15177;50.844;4.412;2023-02-26T19:19:40;4.30;99.90
27797;DHT22;15177;50.844;4.412;2023-02-26T19:22:08;4.40;99.90
27797;DHT22;15177;50.844;4.412;2023-02-26T19:24:33;4.30;99.90
27797;DHT22;15177;50.844;4.412;2023-02-26T19:26:59;4.30;99.90
27797;DHT22;15177;50.844;4.412;2023-02-26T19:29:25;4.30;99.90
27797;DHT22;15177;50.844;4.412;2023-02-26T19:31:51;4.40;99.90
27797;DHT22;15177;50.844;4.412;2023-02-26T19:34:16;4.30;99.90
27797;DHT22;15177;50.844;4.412;2023-02-26T19:36:43;4.40;99.90
27797;DHT22;15177;50.844;4.412;2023-02-26T19:39:15;4.40;99.90
27797;DHT22;15177;50.844;4.412;2023-02-26T19:41:41;4.20;99.90
27797;DHT22;15177;50.844;4.412;2023-02-26T19:44:06;4.20;99.90
27797;DHT22;15177;50.844;4.412;2023-02-26T19:46:32;4.20;99.90
27797;DHT22;15177;50.844;4.412;2023-02-26T19:48:58;4.30;99.90
27797;DHT22;15177;50.844;4.412;2023-02-26T19:51:24;4.20;99.90
27797;DHT22;15177;50.844;4.412;2023-02-26T19:53:50;4.10;99.90